Archival Weather

Randolph Afb

Universal City, Texas (KRND)

Report from: Monday, September 26, 2022 5:55 PM CDT
Current time: Saturday, February 4, 2023 9:27 PM CST

Current weather
Weather history
Weather forecast

Temperature33.7°C (92.7°F)
Heat index31.5°C (88.7°F)
Dew point6.1°C (43.0°F)
Winds 8 kts (4.1 m/s, 9.2 mph) Northeast (40°)
Wind gusts 15 kts (7.7 m/s, 17.3 mph)
Visibility10 mi. (16.1 km)
Clouds Sky clear
Altimeter29.96 in.Hg (1015 mB)
Relative humidity18 %
Density altitude2,224 ft. (678 m)
Sea-level pressure101.4 kPa (1014 mB, 29.93 in.Hg)
Remarks Fully automated report
Automated weather observing station with precipitation discriminator
Flight conditions Visual Meteorological Conditions
Raw dataKRND 262255Z AUTO 04008G15KT 10SM CLR 34/06 A2996 RMK AO2 SLP137 T03370061
An unhandled exception has occurred. See browser dev tools for details. Reload 🗙